메인 페이지
METAR-TAF:

METAR-TAF

공항 :

Stinson Municipal Airport

샌안토니오, 텍사스, 미국

위도: 29-20-20N, 경도: 098-28-18W, 고도: 175m

현재 날씨관측

예보는 50분 전, 13:53시(UTC)에 발표되었습니다.
무풍
온도 7°C
습도 87%
기압 1011 hPa
시정: 16.1km
맑음

METAR: KSSF 141353Z 00000KT 10SM CLR 07/05 A2985 RMK AO2 SLP109 T00670050

시각: 08:43 (14:43 UTC)

예보

예보는 3 시간 11분 전, 11:32시(UTC)에 발표되었습니다.
예보 대상 시간: 14일 12시부터 15일 12시까지 (UTC)
여러 방향의 바람 3kt
시정: 10km
맑음
14일 1500시부터 (UTC)
남남동6kt
시정: 10km
맑음

TAF: KSSF 141132Z 1412/1512 VRB03KT P6SM SKC FM141500 15006KT P6SM SKC

4,000개 이상의 공항 관측 자료 및 예보 (METAR 및 TAF 보고).

지도상에서 검색 가능한 기상관측소가 노란 점과 빨간 점으로 표시되어 있습니다.

기상관측소 명을 보려면 표시 위로 마우스를 이동하세요.

날씨 관측과 예보를 보려면 클릭하세요.

지도 변경 : 확대하려면 엑스 표시가 있는 녹색 버튼, 축소하려면 빼기 표시가 있는 녹색 버튼, 다음 페이지의 지도를 보려면 녹색 화살표를 클릭하세요.


METAR-TAF: